Terminal Aerodrome Forecast
Issued by NWS Grand Forks, ND

Home | Current Version | Previous Version | Text Only | Print | Product List | Glossary Off
Versions: 1 2 3 4 5 6 7 8 9 10 11 12 13 14 15 16 17 18 19 20 21 22 23 24 25 26 27

469
FTUS43 KFGF 241856 AAA
TAFGFK
TAF AMD
KGFK 241856Z 2419/2518 01010KT P6SM BKN022
     FM250100 02006KT P6SM SCT025
     FM250700 09004KT P6SM FEW070
     FM251300 15008KT P6SM SCT070=

USA.gov is the U.S. government's official web portal to all federal, state and local government web resources and services.